createdAt,value
2024-02-14T00:00:50.311Z,33.45
2024-02-14T00:03:17.241Z,32.16
2024-02-14T00:05:43.749Z,31.72
2024-02-14T00:08:10.652Z,33.54
2024-02-14T00:10:37.277Z,33.73
2024-02-14T00:13:03.964Z,33.05
2024-02-14T00:15:30.426Z,34.15
2024-02-14T00:17:56.987Z,33.72
2024-02-14T00:20:23.460Z,33.96
2024-02-14T00:22:49.834Z,34.22
2024-02-14T00:25:19.560Z,34.10
2024-02-14T00:27:47.235Z,33.92
2024-02-14T00:30:13.794Z,33.73
2024-02-14T00:32:40.927Z,34.40
2024-02-14T00:35:07.716Z,34.22
2024-02-14T00:37:34.661Z,33.51
2024-02-14T00:40:01.122Z,35.49
2024-02-14T00:42:27.933Z,34.92
2024-02-14T00:44:54.365Z,33.61
2024-02-14T00:47:20.776Z,32.55
2024-02-14T00:49:47.410Z,34.05
2024-02-14T00:52:13.842Z,32.90
2024-02-14T00:54:40.179Z,32.61
2024-02-14T00:57:06.564Z,33.26
2024-02-14T00:59:33.080Z,32.93
2024-02-14T01:02:00.325Z,32.35
2024-02-14T01:04:26.672Z,32.74
2024-02-14T01:06:53.118Z,32.28
2024-02-14T01:09:19.728Z,33.03
2024-02-14T01:11:46.192Z,31.97
2024-02-14T01:14:15.220Z,31.80
2024-02-14T01:16:44.971Z,31.45
2024-02-14T01:19:11.619Z,31.30
2024-02-14T01:21:38.377Z,31.83
2024-02-14T01:24:06.397Z,32.42
2024-02-14T01:26:33.395Z,31.28
2024-02-14T01:29:02.112Z,32.20
2024-02-14T01:31:28.536Z,31.26
2024-02-14T01:33:55.176Z,30.92
2024-02-14T01:36:22.431Z,31.11
2024-02-14T01:38:48.808Z,31.03
2024-02-14T01:41:15.155Z,33.64
2024-02-14T01:43:41.493Z,34.67
2024-02-14T01:46:07.943Z,33.35
2024-02-14T01:48:35.138Z,33.19
2024-02-14T01:51:01.874Z,32.81
2024-02-14T01:53:31.068Z,33.47
2024-02-14T01:56:00.460Z,32.52
2024-02-14T01:58:27.085Z,32.65
2024-02-14T02:00:59.696Z,33.05
2024-02-14T02:03:27.181Z,34.49
2024-02-14T02:05:54.987Z,33.38
2024-02-14T02:08:21.737Z,31.62
2024-02-14T02:10:48.121Z,31.57
2024-02-14T02:13:16.763Z,30.71
2024-02-14T02:15:45.901Z,31.15
2024-02-14T02:18:12.743Z,30.95
2024-02-14T02:20:39.444Z,31.77
2024-02-14T02:23:06.272Z,32.50
2024-02-14T02:25:32.741Z,32.83
2024-02-14T02:27:59.588Z,31.58
2024-02-14T02:30:26.496Z,32.25
2024-02-14T02:32:52.979Z,31.26
2024-02-14T02:35:22.279Z,31.61
2024-02-14T02:37:51.965Z,32.66
2024-02-14T02:40:18.507Z,33.48
2024-02-14T02:42:46.322Z,33.15
2024-02-14T02:45:12.709Z,32.64
2024-02-14T02:47:39.220Z,32.28
2024-02-14T02:50:05.848Z,32.39
2024-02-14T02:52:32.229Z,31.99
2024-02-14T02:54:58.696Z,32.63
2024-02-14T02:57:27.742Z,31.57
2024-02-14T02:59:55.339Z,33.55
2024-02-14T03:02:21.750Z,34.31
2024-02-14T03:04:52.547Z,33.47
2024-02-14T03:07:20.531Z,32.35
2024-02-14T03:09:47.378Z,32.85
2024-02-14T03:12:17.294Z,32.84
2024-02-14T03:14:45.113Z,32.55
2024-02-14T03:17:11.626Z,32.92
2024-02-14T03:19:40.055Z,33.49
2024-02-14T03:22:10.429Z,32.74
2024-02-14T03:24:38.120Z,31.70
2024-02-14T03:27:05.738Z,31.98
2024-02-14T03:29:32.320Z,31.66
2024-02-14T03:32:00.656Z,31.61
2024-02-14T03:34:27.508Z,31.92
2024-02-14T03:36:53.949Z,32.76
2024-02-14T03:39:20.428Z,32.47
2024-02-14T03:41:46.854Z,32.87
2024-02-14T03:44:14.278Z,34.02
2024-02-14T03:46:40.709Z,35.09
2024-02-14T03:49:07.281Z,35.57
2024-02-14T03:51:34.784Z,34.50
2024-02-14T03:54:01.333Z,33.61
2024-02-14T03:56:27.833Z,32.95
2024-02-14T03:58:54.253Z,32.69
2024-02-14T04:01:20.899Z,32.76
2024-02-14T04:03:48.291Z,32.70
2024-02-14T04:06:14.840Z,33.44
2024-02-14T04:08:41.348Z,32.87
2024-02-14T04:11:07.862Z,33.48
2024-02-14T04:13:34.225Z,33.72
2024-02-14T04:16:00.577Z,34.52
2024-02-14T04:18:27.038Z,33.56
2024-02-14T04:20:53.550Z,32.71
2024-02-14T04:23:20.664Z,32.56
2024-02-14T04:25:47.049Z,31.94
2024-02-14T04:28:13.872Z,31.20
2024-02-14T04:30:40.244Z,31.21
2024-02-14T04:33:10.411Z,32.33
2024-02-14T04:35:39.109Z,32.73
2024-02-14T04:38:05.487Z,32.07
2024-02-14T04:40:31.833Z,31.70
2024-02-14T04:42:58.192Z,32.22
2024-02-14T04:45:24.544Z,32.10
2024-02-14T04:47:51.017Z,32.41
2024-02-14T04:50:17.559Z,31.96
2024-02-14T04:52:43.904Z,32.20
2024-02-14T04:55:10.304Z,31.84
2024-02-14T04:57:38.012Z,31.48
2024-02-14T05:00:06.338Z,31.55
2024-02-14T05:02:32.986Z,31.81
2024-02-14T05:04:59.648Z,32.19
2024-02-14T05:07:26.096Z,34.10
2024-02-14T05:09:53.569Z,35.44
2024-02-14T05:12:20.758Z,34.06
2024-02-14T05:14:47.255Z,32.73
2024-02-14T05:17:13.668Z,32.91
2024-02-14T05:19:40.619Z,33.67
2024-02-14T05:22:07.008Z,33.77
2024-02-14T05:24:33.341Z,33.84
2024-02-14T05:26:59.740Z,34.75
2024-02-14T05:29:26.215Z,33.31
2024-02-14T05:31:56.276Z,32.67
2024-02-14T05:34:22.768Z,32.40
2024-02-14T05:36:49.246Z,32.29
2024-02-14T05:39:16.680Z,32.05
2024-02-14T05:41:43.073Z,30.81
2024-02-14T05:44:09.442Z,30.91
2024-02-14T05:46:35.855Z,31.31
2024-02-14T05:49:02.376Z,31.50
2024-02-14T05:51:28.857Z,31.23
2024-02-14T05:53:55.322Z,32.04
2024-02-14T05:56:21.757Z,32.89
2024-02-14T05:58:48.095Z,32.81
2024-02-14T06:01:14.501Z,32.30
2024-02-14T06:03:42.368Z,31.53
2024-02-14T06:06:08.872Z,31.20
2024-02-14T06:08:35.333Z,30.88
2024-02-14T06:11:02.064Z,30.93
2024-02-14T06:13:28.426Z,30.83
2024-02-14T06:15:54.787Z,32.37
2024-02-14T06:18:21.344Z,33.58
2024-02-14T06:20:48.071Z,33.08
2024-02-14T06:23:14.514Z,32.94
2024-02-14T06:25:40.854Z,32.46
2024-02-14T06:28:07.281Z,31.50
2024-02-14T06:30:34.181Z,32.72
2024-02-14T06:33:02.371Z,32.36
2024-02-14T06:35:29.989Z,31.08
2024-02-14T06:38:03.517Z,31.99
2024-02-14T06:40:31.532Z,31.45
2024-02-14T06:42:59.268Z,30.92
2024-02-14T06:45:25.868Z,30.54
2024-02-14T06:47:52.309Z,30.80
2024-02-14T06:50:18.728Z,30.67
2024-02-14T06:52:45.058Z,30.69
2024-02-14T06:55:11.444Z,31.05
2024-02-14T06:57:37.792Z,30.99
2024-02-14T07:00:07.053Z,31.00
2024-02-14T07:02:33.651Z,31.56
2024-02-14T07:05:00.160Z,32.63
2024-02-14T07:07:26.956Z,32.09
2024-02-14T07:09:54.354Z,33.26
2024-02-14T07:12:20.924Z,32.61
2024-02-14T07:14:47.530Z,33.10
2024-02-14T07:17:13.930Z,34.21
2024-02-14T07:19:43.949Z,33.26
2024-02-14T07:22:10.605Z,32.77
2024-02-14T07:24:37.081Z,32.05
2024-02-14T07:27:03.594Z,31.47
2024-02-14T07:29:30.683Z,31.29
2024-02-14T07:31:59.892Z,31.30
2024-02-14T07:34:26.780Z,30.83
2024-02-14T07:36:53.401Z,32.39
2024-02-14T07:39:19.835Z,31.90
2024-02-14T07:41:46.358Z,32.58
2024-02-14T07:44:13.088Z,33.55
2024-02-14T07:46:39.625Z,32.97
2024-02-14T07:49:07.510Z,33.56
2024-02-14T07:51:37.843Z,34.20
2024-02-14T07:54:07.467Z,34.48
2024-02-14T07:56:34.185Z,34.95
2024-02-14T07:59:01.173Z,33.53
2024-02-14T08:01:27.919Z,33.27
2024-02-14T08:03:54.348Z,31.77
2024-02-14T08:06:20.856Z,32.56
2024-02-14T08:08:47.383Z,32.05
2024-02-14T08:11:13.822Z,31.04
2024-02-14T08:13:40.970Z,31.30
2024-02-14T08:16:07.936Z,30.89
2024-02-14T08:18:34.509Z,31.27
2024-02-14T08:21:01.021Z,30.75
2024-02-14T08:23:27.412Z,30.99
2024-02-14T08:25:53.818Z,31.10
2024-02-14T08:28:21.492Z,32.02
2024-02-14T08:30:48.921Z,29.65
2024-02-14T08:33:15.409Z,29.21
2024-02-14T08:35:43.807Z,29.22
2024-02-14T08:38:10.675Z,29.32
2024-02-14T08:40:37.823Z,28.90
2024-02-14T08:43:05.728Z,29.39
2024-02-14T08:45:32.850Z,30.53
2024-02-14T08:47:59.444Z,29.58
2024-02-14T08:50:25.925Z,30.01
2024-02-14T08:52:52.381Z,29.25
2024-02-14T08:55:19.823Z,29.84
2024-02-14T08:57:48.520Z,30.08
2024-02-14T09:00:20.455Z,29.45
2024-02-14T09:02:48.143Z,28.61
2024-02-14T09:05:14.743Z,29.12
2024-02-14T09:07:42.719Z,29.09
2024-02-14T09:10:09.360Z,28.78
2024-02-14T09:12:35.811Z,28.37
2024-02-14T09:15:03.082Z,28.94
2024-02-14T09:17:29.558Z,29.11
2024-02-14T09:19:57.935Z,28.97
2024-02-14T09:22:24.429Z,29.52
2024-02-14T09:24:53.657Z,30.49
2024-02-14T09:27:20.825Z,31.04
2024-02-14T09:29:47.328Z,29.95
2024-02-14T09:32:14.063Z,28.90
2024-02-14T09:34:40.703Z,29.44
2024-02-14T09:37:07.851Z,29.73
2024-02-14T09:39:37.796Z,28.60
2024-02-14T09:42:08.848Z,30.01
2024-02-14T09:44:35.697Z,28.64
2024-02-14T09:47:02.339Z,28.26
2024-02-14T09:49:28.838Z,29.38
2024-02-14T09:51:55.354Z,28.42
2024-02-14T09:54:21.758Z,29.72
2024-02-14T09:56:54.325Z,31.91
2024-02-14T09:59:21.027Z,30.35
2024-02-14T10:01:49.072Z,30.76
2024-02-14T10:04:15.485Z,31.06
2024-02-14T10:06:41.944Z,29.88
2024-02-14T10:09:08.982Z,29.83
2024-02-14T10:11:36.057Z,26.75
2024-02-14T10:14:04.888Z,28.87
2024-02-14T10:16:31.938Z,27.64
2024-02-14T10:18:58.827Z,28.25
2024-02-14T10:21:26.931Z,28.80
2024-02-14T10:23:54.358Z,29.57
2024-02-14T10:26:20.954Z,28.69
2024-02-14T10:28:50.269Z,26.95
2024-02-14T10:31:17.120Z,26.38
2024-02-14T10:33:43.744Z,26.13
2024-02-14T10:36:10.424Z,26.28
2024-02-14T10:38:37.057Z,25.57
2024-02-14T10:41:03.545Z,25.90
2024-02-14T10:43:30.278Z,26.01
2024-02-14T10:45:57.098Z,27.14
2024-02-14T10:48:27.828Z,27.88
2024-02-14T10:50:54.698Z,28.77
2024-02-14T10:53:21.418Z,28.21
2024-02-14T10:55:48.949Z,27.97
2024-02-14T10:58:15.505Z,27.23
2024-02-14T11:00:42.332Z,28.02
2024-02-14T11:03:08.736Z,28.52
2024-02-14T11:05:46.486Z,27.64
2024-02-14T11:08:22.668Z,27.89
2024-02-14T11:10:56.179Z,27.16
2024-02-14T11:13:22.700Z,27.75
2024-02-14T11:15:49.127Z,27.75
2024-02-14T11:18:15.702Z,27.22
2024-02-14T11:20:47.225Z,27.61
2024-02-14T11:23:13.791Z,27.86
2024-02-14T11:25:40.155Z,27.82
2024-02-14T11:28:25.138Z,27.84
2024-02-14T11:30:51.930Z,27.23
2024-02-14T11:33:22.300Z,27.27
2024-02-14T11:35:53.016Z,27.36
2024-02-14T11:38:23.031Z,26.49
2024-02-14T11:40:50.218Z,27.53
2024-02-14T11:43:18.981Z,27.03
2024-02-14T11:45:46.534Z,26.20
2024-02-14T11:48:13.713Z,26.84
2024-02-14T11:50:40.863Z,27.84
2024-02-14T11:53:11.602Z,26.24
2024-02-14T11:55:38.661Z,26.68
2024-02-14T11:58:09.238Z,26.24
2024-02-14T12:00:36.985Z,26.73
2024-02-14T12:03:03.514Z,26.56
2024-02-14T12:05:29.929Z,26.18
2024-02-14T12:07:56.330Z,24.84
2024-02-14T12:10:22.797Z,26.28
2024-02-14T12:12:49.163Z,25.86
2024-02-14T12:15:16.923Z,26.11
2024-02-14T12:17:43.502Z,25.69
2024-02-14T12:20:11.727Z,26.40
2024-02-14T12:22:38.454Z,26.75
2024-02-14T12:25:06.303Z,26.60
2024-02-14T12:27:33.262Z,26.39
2024-02-14T12:29:59.670Z,26.73
2024-02-14T12:32:26.164Z,26.20
2024-02-14T12:34:52.672Z,26.69
2024-02-14T12:37:19.049Z,26.21
2024-02-14T12:39:45.416Z,26.08
2024-02-14T12:42:11.894Z,26.05
2024-02-14T12:44:39.128Z,26.14
2024-02-14T12:47:05.521Z,26.44
2024-02-14T12:49:32.820Z,26.85
2024-02-14T12:51:59.328Z,26.66
2024-02-14T12:54:25.812Z,28.90
2024-02-14T12:56:53.119Z,27.86
2024-02-14T12:59:19.532Z,27.07
2024-02-14T13:01:46.093Z,28.70
2024-02-14T13:04:13.022Z,27.84
2024-02-14T13:06:39.523Z,27.66
2024-02-14T13:09:09.570Z,27.17
2024-02-14T13:11:36.433Z,26.50
2024-02-14T13:14:02.911Z,27.96
2024-02-14T13:16:29.330Z,28.40
2024-02-14T13:18:55.861Z,27.92
2024-02-14T13:21:22.405Z,26.44
2024-02-14T13:23:48.978Z,27.40
2024-02-14T13:26:15.414Z,27.76
2024-02-14T13:28:41.767Z,27.10
2024-02-14T13:31:08.108Z,27.46
2024-02-14T13:33:34.684Z,27.96
2024-02-14T13:36:01.199Z,27.72
2024-02-14T13:38:27.607Z,28.70
2024-02-14T13:40:54.263Z,27.41
2024-02-14T13:43:20.609Z,27.93
2024-02-14T13:45:48.867Z,26.90
2024-02-14T13:48:15.481Z,26.71
2024-02-14T13:50:43.607Z,26.51
2024-02-14T13:53:10.214Z,26.48
2024-02-14T13:55:36.562Z,28.72
2024-02-14T13:58:02.933Z,28.44
2024-02-14T14:00:29.407Z,29.04
2024-02-14T14:02:56.659Z,28.24
2024-02-14T14:05:23.207Z,28.19
2024-02-14T14:07:57.694Z,27.95
2024-02-14T14:10:29.226Z,27.42
2024-02-14T14:12:56.346Z,28.35
2024-02-14T14:15:27.774Z,28.59
2024-02-14T14:17:54.420Z,29.16
2024-02-14T14:20:21.559Z,28.32
2024-02-14T14:22:48.319Z,28.04
2024-02-14T14:25:14.842Z,28.16
2024-02-14T14:27:41.287Z,28.20
2024-02-14T14:30:08.502Z,28.99
2024-02-14T14:32:35.066Z,28.19
2024-02-14T14:35:01.858Z,28.48
2024-02-14T14:37:28.460Z,29.92
2024-02-14T14:39:56.369Z,28.63
2024-02-14T14:42:22.757Z,30.18
2024-02-14T14:44:49.179Z,29.55
2024-02-14T14:47:15.665Z,28.35
2024-02-14T14:49:42.277Z,28.74
2024-02-14T14:52:08.704Z,27.77
2024-02-14T14:54:35.162Z,28.58
2024-02-14T14:57:05.072Z,28.94
2024-02-14T14:59:31.566Z,28.18
2024-02-14T15:01:58.005Z,29.38
2024-02-14T15:04:24.535Z,30.32
2024-02-14T15:06:53.798Z,29.78
2024-02-14T15:09:21.394Z,31.66
2024-02-14T15:11:48.144Z,30.33
2024-02-14T15:14:14.496Z,31.04
2024-02-14T15:16:40.858Z,29.69
2024-02-14T15:19:08.073Z,30.11
2024-02-14T15:21:34.593Z,28.11
2024-02-14T15:24:01.483Z,30.19
2024-02-14T15:26:27.949Z,30.49
2024-02-14T15:29:14.309Z,30.66
2024-02-14T15:31:59.219Z,30.16
2024-02-14T15:34:25.900Z,31.20
2024-02-14T15:36:52.544Z,31.84
2024-02-14T15:39:18.981Z,31.03
2024-02-14T15:41:45.375Z,31.35
2024-02-14T15:44:11.758Z,32.68
2024-02-14T15:46:38.134Z,31.54
2024-02-14T15:49:04.558Z,30.82
2024-02-14T15:51:31.150Z,30.87
2024-02-14T15:53:57.532Z,30.19
2024-02-14T15:56:25.364Z,31.65
2024-02-14T15:58:52.904Z,31.01
2024-02-14T16:01:19.334Z,32.06
2024-02-14T16:03:46.329Z,30.30
2024-02-14T16:06:12.793Z,29.74
2024-02-14T16:08:39.198Z,29.72
2024-02-14T16:11:05.583Z,28.73
2024-02-14T16:13:31.927Z,29.32
2024-02-14T16:15:58.266Z,29.78
2024-02-14T16:18:26.041Z,29.35
2024-02-14T16:20:52.663Z,29.76
2024-02-14T16:23:19.425Z,30.06
2024-02-14T16:25:48.698Z,31.15
2024-02-14T16:28:15.072Z,31.89
2024-02-14T16:30:41.412Z,32.36
2024-02-14T16:33:08.330Z,31.19
2024-02-14T16:35:35.064Z,32.04
2024-02-14T16:38:01.489Z,32.40
2024-02-14T16:40:30.102Z,32.22
2024-02-14T16:42:58.172Z,31.93
2024-02-14T16:45:24.620Z,32.42
2024-02-14T16:47:51.179Z,30.78
2024-02-14T16:50:17.839Z,31.13
2024-02-14T16:52:44.507Z,31.50
2024-02-14T16:55:10.991Z,31.09
2024-02-14T16:57:37.470Z,31.58
2024-02-14T17:00:05.327Z,31.35
2024-02-14T17:02:31.965Z,31.75
2024-02-14T17:04:58.503Z,31.58
2024-02-14T17:07:24.983Z,31.97
2024-02-14T17:09:51.360Z,31.51
2024-02-14T17:12:18.294Z,31.95
2024-02-14T17:14:45.924Z,31.53
2024-02-14T17:17:13.876Z,32.63
2024-02-14T17:19:40.480Z,33.69
2024-02-14T17:22:16.741Z,33.55
2024-02-14T17:24:48.430Z,34.68
2024-02-14T17:27:16.671Z,34.78
2024-02-14T17:29:43.259Z,32.60
2024-02-14T17:32:17.668Z,32.26
2024-02-14T17:34:50.382Z,31.49
2024-02-14T17:37:16.813Z,32.18
2024-02-14T17:39:43.209Z,32.84
2024-02-14T17:42:09.611Z,32.31
2024-02-14T17:44:36.062Z,34.52
2024-02-14T17:47:02.451Z,34.59
2024-02-14T17:49:29.470Z,34.51
2024-02-14T17:51:55.839Z,33.49
2024-02-14T17:54:24.198Z,33.26
2024-02-14T17:56:50.624Z,32.26
2024-02-14T17:59:17.108Z,32.50
2024-02-14T18:01:43.460Z,31.14
2024-02-14T18:04:10.151Z,31.71
2024-02-14T18:06:37.049Z,32.71
2024-02-14T18:09:03.815Z,33.70
2024-02-14T18:11:30.225Z,33.91
2024-02-14T18:13:56.567Z,33.04
2024-02-14T18:16:22.900Z,33.97
2024-02-14T18:18:49.433Z,34.75
2024-02-14T18:21:15.973Z,33.44
2024-02-14T18:23:42.677Z,34.60
2024-02-14T18:26:11.048Z,34.33
2024-02-14T18:28:37.487Z,34.06
2024-02-14T18:31:04.569Z,35.11
2024-02-14T18:33:33.156Z,34.48
2024-02-14T18:35:59.803Z,34.71
2024-02-14T18:38:32.282Z,34.81
2024-02-14T18:41:00.788Z,34.78
2024-02-14T18:43:28.131Z,35.18
2024-02-14T18:45:55.189Z,34.88
2024-02-14T18:48:22.103Z,36.03
2024-02-14T18:50:48.698Z,35.14
2024-02-14T18:53:15.287Z,35.37
2024-02-14T18:55:41.656Z,35.23
2024-02-14T18:58:07.993Z,34.61
2024-02-14T19:00:35.128Z,34.33
2024-02-14T19:03:03.486Z,34.91
2024-02-14T19:05:29.942Z,34.80
2024-02-14T19:07:57.105Z,34.56
2024-02-14T19:10:24.019Z,34.69
2024-02-14T19:12:50.437Z,34.93
2024-02-14T19:15:16.869Z,35.38
2024-02-14T19:17:43.604Z,36.31
2024-02-14T19:20:10.204Z,37.00
2024-02-14T19:22:36.658Z,36.95
2024-02-14T19:25:03.365Z,37.60
2024-02-14T19:27:29.734Z,37.34
2024-02-14T19:29:56.142Z,37.38
2024-02-14T19:32:22.537Z,39.00
2024-02-14T19:34:48.984Z,38.31
2024-02-14T19:37:15.352Z,37.88
2024-02-14T19:39:41.762Z,37.70
2024-02-14T19:42:08.796Z,38.04
2024-02-14T19:44:35.208Z,37.34
2024-02-14T19:47:01.616Z,36.67
2024-02-14T19:49:28.312Z,36.93
2024-02-14T19:51:55.810Z,36.15
2024-02-14T19:54:22.206Z,35.17
2024-02-14T19:56:49.267Z,35.48
2024-02-14T19:59:15.729Z,35.30
2024-02-14T20:01:42.072Z,35.50
2024-02-14T20:04:10.538Z,37.28
2024-02-14T20:06:36.921Z,36.45
2024-02-14T20:09:04.260Z,37.27
2024-02-14T20:11:30.788Z,39.13
2024-02-14T20:13:57.162Z,39.53
2024-02-14T20:16:23.546Z,38.19
2024-02-14T20:18:50.069Z,36.42
2024-02-14T20:21:16.649Z,37.11
2024-02-14T20:23:43.114Z,37.87
2024-02-14T20:26:09.560Z,37.35
2024-02-14T20:28:36.206Z,37.41
2024-02-14T20:31:02.644Z,36.84
2024-02-14T20:33:29.139Z,37.53
2024-02-14T20:35:55.644Z,37.04
2024-02-14T20:38:23.007Z,36.70
2024-02-14T20:40:51.024Z,37.42
2024-02-14T20:43:17.376Z,36.76
2024-02-14T20:45:43.891Z,37.49
2024-02-14T20:48:10.354Z,37.32
2024-02-14T20:50:37.360Z,37.01
2024-02-14T20:53:04.362Z,36.70
2024-02-14T20:55:33.254Z,38.12
2024-02-14T20:58:00.570Z,37.41
2024-02-14T21:00:27.524Z,37.17
2024-02-14T21:02:54.009Z,39.39
2024-02-14T21:05:20.553Z,39.23
2024-02-14T21:07:47.301Z,38.52
2024-02-14T21:10:15.106Z,39.39
2024-02-14T21:12:42.587Z,41.03
2024-02-14T21:15:09.130Z,41.61
2024-02-14T21:17:35.726Z,40.24
2024-02-14T21:20:02.368Z,38.51
2024-02-14T21:22:28.758Z,37.83
2024-02-14T21:24:55.122Z,38.11
2024-02-14T21:27:21.529Z,38.17
2024-02-14T21:29:47.919Z,37.87
2024-02-14T21:32:15.491Z,36.72
2024-02-14T21:34:42.341Z,36.83
2024-02-14T21:37:08.782Z,37.79
2024-02-14T21:39:35.879Z,37.92
2024-02-14T21:42:02.268Z,37.37
2024-02-14T21:44:30.212Z,36.91
2024-02-14T21:46:56.918Z,37.22
2024-02-14T21:49:24.710Z,36.89
2024-02-14T21:51:52.921Z,37.08
2024-02-14T21:54:19.749Z,36.93
2024-02-14T21:56:46.135Z,38.13
2024-02-14T21:59:13.292Z,38.94
2024-02-14T22:01:39.710Z,38.55
2024-02-14T22:04:06.257Z,38.78
2024-02-14T22:06:32.812Z,38.44
2024-02-14T22:08:59.402Z,38.64
2024-02-14T22:11:26.422Z,39.22
2024-02-14T22:13:52.812Z,40.25
2024-02-14T22:16:19.194Z,40.12
2024-02-14T22:18:45.824Z,38.20
2024-02-14T22:21:12.496Z,36.88
2024-02-14T22:23:39.456Z,37.10
2024-02-14T22:26:06.516Z,37.74
2024-02-14T22:28:35.799Z,38.08
2024-02-14T22:31:03.245Z,37.97
2024-02-14T22:33:29.723Z,39.99
2024-02-14T22:35:56.576Z,40.12
2024-02-14T22:38:23.563Z,40.72
2024-02-14T22:40:49.997Z,40.78
2024-02-14T22:43:16.953Z,38.89
2024-02-14T22:45:43.908Z,39.95
2024-02-14T22:48:10.769Z,40.32
2024-02-14T22:50:37.206Z,40.16
2024-02-14T22:53:04.835Z,39.95
2024-02-14T22:55:31.885Z,41.07
2024-02-14T22:57:58.304Z,40.63
2024-02-14T23:00:25.221Z,39.18
2024-02-14T23:02:51.694Z,38.67
2024-02-14T23:05:21.253Z,38.18
2024-02-14T23:07:50.562Z,37.42
2024-02-14T23:10:17.099Z,38.38
2024-02-14T23:12:43.879Z,38.12
2024-02-14T23:15:11.787Z,39.22
2024-02-14T23:17:38.407Z,39.60
2024-02-14T23:20:07.400Z,39.86
2024-02-14T23:22:34.822Z,40.12
2024-02-14T23:25:02.210Z,39.84
2024-02-14T23:27:28.542Z,38.42
2024-02-14T23:29:56.334Z,40.65
2024-02-14T23:32:22.681Z,41.63
2024-02-14T23:34:49.050Z,40.40
2024-02-14T23:37:15.470Z,40.05
2024-02-14T23:39:41.825Z,39.20
2024-02-14T23:42:09.772Z,38.91
2024-02-14T23:44:37.880Z,38.86
2024-02-14T23:47:04.540Z,38.44
2024-02-14T23:49:30.998Z,37.95
2024-02-14T23:51:57.432Z,39.87
2024-02-14T23:54:23.790Z,40.53
2024-02-14T23:56:50.218Z,40.67
2024-02-14T23:59:16.966Z,41.31
